createdAt,value
2023-01-18T00:02:22.881Z,99067.22
2023-01-18T00:05:08.792Z,99069.38
2023-01-18T00:07:54.754Z,99076.63
2023-01-18T00:10:42.416Z,99086.09
2023-01-18T00:13:28.329Z,99092.44
2023-01-18T00:16:15.092Z,99084.34
2023-01-18T00:19:00.960Z,99079.44
2023-01-18T00:21:46.675Z,99084.84
2023-01-18T00:24:32.852Z,99073.84
2023-01-18T00:27:21.087Z,99076.66
2023-01-18T00:30:07.401Z,99072.50
2023-01-18T00:32:54.992Z,99081.34
2023-01-18T00:35:43.285Z,99077.16
2023-01-18T00:38:29.462Z,99077.28
2023-01-18T00:41:15.288Z,99071.47
2023-01-18T00:44:01.959Z,99076.03
2023-01-18T00:46:49.905Z,99071.88
2023-01-18T00:49:35.907Z,99066.06
2023-01-18T00:52:21.890Z,99065.34
2023-01-18T00:55:08.533Z,99057.84
2023-01-18T00:57:54.610Z,99049.56
2023-01-18T01:00:41.986Z,99042.81
2023-01-18T01:03:27.557Z,99044.69
2023-01-18T01:06:32.179Z,99046.44
2023-01-18T01:09:19.184Z,99033.69
2023-01-18T01:12:22.849Z,99037.28
2023-01-18T01:15:27.198Z,99029.72
2023-01-18T01:18:32.279Z,99027.44
2023-01-18T01:21:36.130Z,99034.50
2023-01-18T01:24:40.141Z,99032.81
2023-01-18T01:27:26.162Z,99026.19
2023-01-18T01:30:12.210Z,99029.06
2023-01-18T01:32:58.696Z,99030.09
2023-01-18T01:35:45.857Z,99023.47
2023-01-18T01:38:31.690Z,99030.53
2023-01-18T01:41:18.067Z,99028.31
2023-01-18T01:44:04.856Z,99026.84
2023-01-18T01:46:52.170Z,99030.38
2023-01-18T01:49:40.035Z,99022.91
2023-01-18T01:52:27.958Z,99016.16
2023-01-18T01:55:14.536Z,99018.75
2023-01-18T01:58:01.782Z,99016.38
2023-01-18T02:00:47.863Z,99013.06
2023-01-18T02:03:33.928Z,99019.34
2023-01-18T02:06:31.319Z,99015.31
2023-01-18T02:09:22.988Z,99011.78
2023-01-18T02:12:08.733Z,99007.00
2023-01-18T02:14:54.680Z,99012.38
2023-01-18T02:17:49.831Z,99016.84
2023-01-18T02:20:59.908Z,99011.84
2023-01-18T02:24:01.352Z,99015.47
2023-01-18T02:26:56.277Z,99005.09
2023-01-18T02:29:51.926Z,99010.47
2023-01-18T02:32:40.045Z,99005.41
2023-01-18T02:35:27.209Z,99009.84
2023-01-18T02:38:13.862Z,99015.25
2023-01-18T02:41:05.479Z,98999.84
2023-01-18T02:44:10.083Z,99012.09
2023-01-18T02:46:57.569Z,99015.59
2023-01-18T02:49:43.400Z,99013.13
2023-01-18T02:52:40.095Z,99015.06
2023-01-18T02:55:29.836Z,99022.13
2023-01-18T02:58:16.589Z,99026.56
2023-01-18T03:01:04.046Z,99036.22
2023-01-18T03:03:51.510Z,99041.28
2023-01-18T03:06:37.280Z,99040.66
2023-01-18T03:09:27.046Z,99046.78
2023-01-18T03:12:15.960Z,99055.75
2023-01-18T03:15:04.945Z,99061.66
2023-01-18T03:17:51.654Z,99065.28
2023-01-18T03:20:40.283Z,99066.09
2023-01-18T03:23:39.737Z,99067.13
2023-01-18T03:26:25.675Z,99069.72
2023-01-18T03:29:29.596Z,99079.16
2023-01-18T03:32:33.900Z,99076.75
2023-01-18T03:35:20.004Z,99081.03
2023-01-18T03:38:07.080Z,99094.91
2023-01-18T03:40:52.978Z,99093.34
2023-01-18T03:43:38.735Z,99104.63
2023-01-18T03:46:24.572Z,99106.28
2023-01-18T03:49:10.587Z,99108.34
2023-01-18T03:51:59.453Z,99105.81
2023-01-18T03:54:49.038Z,99104.97
2023-01-18T03:57:35.263Z,99104.97
2023-01-18T04:00:21.552Z,99108.50
2023-01-18T04:03:07.653Z,99112.03
2023-01-18T04:05:53.374Z,99112.03
2023-01-18T04:08:39.117Z,99119.69
2023-01-18T04:11:26.273Z,99124.03
2023-01-18T04:14:12.147Z,99125.72
2023-01-18T04:16:57.949Z,99130.06
2023-01-18T04:19:43.789Z,99131.00
2023-01-18T04:22:29.691Z,99131.00
2023-01-18T04:25:15.382Z,99132.94
2023-01-18T04:28:02.416Z,99145.06
2023-01-18T04:30:50.548Z,99157.81
2023-01-18T04:33:36.539Z,99153.56
2023-01-18T04:36:22.437Z,99163.94
2023-01-18T04:39:10.635Z,99170.03
2023-01-18T04:41:57.350Z,99169.28
2023-01-18T04:44:44.644Z,99171.97
2023-01-18T04:47:30.453Z,99165.03
2023-01-18T04:50:16.287Z,99162.53
2023-01-18T04:53:02.438Z,99169.38
2023-01-18T04:55:48.452Z,99171.97
2023-01-18T04:58:34.198Z,99181.59
2023-01-18T05:01:22.109Z,99171.25
2023-01-18T05:04:08.216Z,99185.94
2023-01-18T05:06:54.001Z,99178.09
2023-01-18T05:09:39.776Z,99183.28
2023-01-18T05:12:25.500Z,99194.28
2023-01-18T05:15:11.860Z,99189.28
2023-01-18T05:17:58.900Z,99198.81
2023-01-18T05:20:44.615Z,99198.72
2023-01-18T05:23:30.551Z,99206.66
2023-01-18T05:26:17.040Z,99217.03
2023-01-18T05:29:02.917Z,99214.44
2023-01-18T05:31:48.753Z,99219.63
2023-01-18T05:34:35.809Z,99218.88
2023-01-18T05:37:21.482Z,99220.72
2023-01-18T05:40:09.195Z,99223.31
2023-01-18T05:42:55.024Z,99227.56
2023-01-18T05:45:41.081Z,99225.16
2023-01-18T05:48:27.287Z,99232.16
2023-01-18T05:51:14.835Z,99236.53
2023-01-18T05:54:00.789Z,99237.44
2023-01-18T05:56:46.586Z,99247.81
2023-01-18T05:59:32.285Z,99246.97
2023-01-18T06:02:18.229Z,99258.06
2023-01-18T06:05:03.992Z,99259.00
2023-01-18T06:07:51.116Z,99259.09
2023-01-18T06:10:36.975Z,99261.59
2023-01-18T06:13:23.480Z,99271.13
2023-01-18T06:16:09.837Z,99272.13
2023-01-18T06:18:55.817Z,99274.81
2023-01-18T06:21:41.660Z,99280.91
2023-01-18T06:24:28.772Z,99284.34
2023-01-18T06:27:14.517Z,99286.91
2023-01-18T06:30:00.551Z,99286.91
2023-01-18T06:32:47.036Z,99293.75
2023-01-18T06:35:33.224Z,99299.03
2023-01-18T06:38:18.907Z,99301.63
2023-01-18T06:41:06.429Z,99307.63
2023-01-18T06:43:52.688Z,99312.91
2023-01-18T06:46:38.370Z,99314.66
2023-01-18T06:49:24.213Z,99319.84
2023-01-18T06:52:10.675Z,99325.84
2023-01-18T06:54:56.558Z,99329.28
2023-01-18T06:57:43.780Z,99337.22
2023-01-18T07:00:29.823Z,99342.41
2023-01-18T07:03:15.567Z,99344.06
2023-01-18T07:06:02.586Z,99351.09
2023-01-18T07:08:49.083Z,99360.53
2023-01-18T07:11:35.701Z,99361.28
2023-01-18T07:14:23.391Z,99369.03
2023-01-18T07:17:09.742Z,99373.47
2023-01-18T07:19:55.703Z,99377.72
2023-01-18T07:22:41.675Z,99375.97
2023-01-18T07:25:27.562Z,99382.81
2023-01-18T07:28:13.782Z,99384.59
2023-01-18T07:31:01.305Z,99387.16
2023-01-18T07:33:47.005Z,99399.03
2023-01-18T07:36:32.861Z,99394.78
2023-01-18T07:39:18.592Z,99404.22
2023-01-18T07:42:04.822Z,99401.53
2023-01-18T07:44:51.176Z,99404.03
2023-01-18T07:47:39.581Z,99408.28
2023-01-18T07:50:25.391Z,99410.97
2023-01-18T07:53:11.827Z,99418.50
2023-01-18T07:55:59.584Z,99429.53
2023-01-18T07:58:45.756Z,99427.78
2023-01-18T08:01:32.319Z,99428.59
2023-01-18T08:04:19.777Z,99434.44
2023-01-18T08:07:05.591Z,99444.81
2023-01-18T08:09:51.459Z,99453.97
2023-01-18T08:12:37.138Z,99445.16
2023-01-18T08:15:22.904Z,99456.16
2023-01-18T08:18:08.943Z,99459.41
2023-01-18T08:20:56.304Z,99463.59
2023-01-18T08:23:42.179Z,99473.69
2023-01-18T08:26:28.063Z,99482.91
2023-01-18T08:29:13.931Z,99492.16
2023-01-18T08:32:00.661Z,99496.25
2023-01-18T08:34:46.865Z,99501.25
2023-01-18T08:37:33.936Z,99506.13
2023-01-18T08:40:19.937Z,99520.41
2023-01-18T08:43:05.958Z,99526.16
2023-01-18T08:45:51.951Z,99544.81
2023-01-18T08:48:37.767Z,99540.19
2023-01-18T08:51:25.831Z,99540.66
2023-01-18T08:54:13.084Z,99550.72
2023-01-18T08:56:59.112Z,99559.06
2023-01-18T08:59:45.229Z,99562.22
2023-01-18T09:02:31.464Z,99568.66
2023-01-18T09:05:17.390Z,99573.50
2023-01-18T09:08:03.152Z,99582.56
2023-01-18T09:10:50.424Z,99595.97
2023-01-18T09:13:36.151Z,99606.63
2023-01-18T09:16:22.211Z,99618.34
2023-01-18T09:19:08.050Z,99621.34
2023-01-18T09:21:53.875Z,99629.63
2023-01-18T09:24:39.978Z,99639.44
2023-01-18T09:27:27.477Z,99643.28
2023-01-18T09:30:16.063Z,99649.59
2023-01-18T09:33:02.380Z,99658.53
2023-01-18T09:35:48.719Z,99670.03
2023-01-18T09:38:36.357Z,99684.91
2023-01-18T09:41:25.483Z,99688.69
2023-01-18T09:44:16.648Z,99696.69
2023-01-18T09:47:04.745Z,99698.56
2023-01-18T09:49:54.870Z,99707.34
2023-01-18T09:52:42.661Z,99710.25
2023-01-18T09:55:33.060Z,99719.06
2023-01-18T09:58:33.685Z,99730.47
2023-01-18T10:01:22.299Z,99729.59
2023-01-18T10:04:08.951Z,99745.41
2023-01-18T10:06:55.193Z,99755.00
2023-01-18T10:09:41.709Z,99757.78
2023-01-18T10:12:30.927Z,99758.03
2023-01-18T10:15:20.126Z,99770.38
2023-01-18T10:18:08.872Z,99768.53
2023-01-18T10:20:56.201Z,99772.19
2023-01-18T10:23:42.292Z,99770.66
2023-01-18T10:26:30.479Z,99768.09
2023-01-18T10:29:17.809Z,99776.03
2023-01-18T10:32:04.291Z,99776.66
2023-01-18T10:34:52.374Z,99769.91
2023-01-18T10:37:40.255Z,99769.06
2023-01-18T10:40:26.331Z,99770.09
2023-01-18T10:43:14.896Z,99777.19
2023-01-18T10:46:01.012Z,99772.25
2023-01-18T10:48:47.503Z,99776.03
2023-01-18T10:51:35.845Z,99772.75
2023-01-18T10:54:22.909Z,99767.00
2023-01-18T10:57:15.679Z,99751.00
2023-01-18T11:00:01.630Z,99743.44
2023-01-18T11:02:48.241Z,99720.22
2023-01-18T11:05:34.678Z,99705.03
2023-01-18T11:08:23.621Z,99683.47
2023-01-18T11:11:16.437Z,99662.78
2023-01-18T11:14:02.781Z,99643.09
2023-01-18T11:16:57.350Z,99615.53
2023-01-18T11:19:43.430Z,99590.59
2023-01-18T11:22:33.368Z,99563.97
2023-01-18T11:25:20.853Z,99520.00
2023-01-18T11:28:08.343Z,99488.94
2023-01-18T11:30:55.541Z,99452.56
2023-01-18T11:33:47.855Z,99420.31
2023-01-18T11:36:34.755Z,99382.94
2023-01-18T11:39:25.468Z,99348.03
2023-01-18T11:42:15.714Z,99305.22
2023-01-18T11:45:07.601Z,99290.72
2023-01-18T11:47:58.938Z,99273.84
2023-01-18T11:50:45.332Z,99227.13
2023-01-18T11:53:35.983Z,99159.00
2023-01-18T11:56:23.375Z,99064.13
2023-01-18T11:59:13.514Z,98979.41
2023-01-18T12:02:08.039Z,98896.25
2023-01-18T12:05:00.971Z,98834.41
2023-01-18T12:07:49.600Z,98775.41
2023-01-18T12:10:36.860Z,98734.97
2023-01-18T12:13:33.950Z,98694.50
2023-01-18T12:16:22.241Z,98663.59
2023-01-18T12:19:22.057Z,98635.41
2023-01-18T12:22:13.301Z,98614.13
2023-01-18T12:25:02.136Z,98591.28
2023-01-18T12:27:49.843Z,98585.44
2023-01-18T12:30:43.002Z,98578.47
2023-01-18T12:33:43.136Z,98575.84
2023-01-18T12:36:36.202Z,98576.41
2023-01-18T12:39:25.062Z,98581.03
2023-01-18T12:42:11.777Z,98586.31
2023-01-18T12:45:00.768Z,98590.81
2023-01-18T12:47:49.355Z,98605.25
2023-01-18T12:50:37.675Z,98612.81
2023-01-18T12:53:25.180Z,98619.84
2023-01-18T12:56:14.289Z,98627.72
2023-01-18T12:59:00.593Z,98630.50
2023-01-18T13:01:47.466Z,98639.44
2023-01-18T13:04:35.908Z,98655.34
2023-01-18T13:07:26.507Z,98646.31
2023-01-18T13:10:16.054Z,98654.47
2023-01-18T13:13:02.093Z,98670.53
2023-01-18T13:15:48.945Z,98669.72
2023-01-18T13:18:36.862Z,98680.50
2023-01-18T13:21:25.074Z,98677.34
2023-01-18T13:24:15.939Z,98686.34
2023-01-18T13:27:09.113Z,98695.34
2023-01-18T13:29:54.917Z,98702.31
2023-01-18T13:32:42.319Z,98701.63
2023-01-18T13:35:32.593Z,98708.00
2023-01-18T13:38:19.415Z,98723.22
2023-01-18T13:41:08.252Z,98723.22
2023-01-18T13:44:02.775Z,98733.53
2023-01-18T13:46:48.683Z,98722.75
2023-01-18T13:49:38.428Z,98716.47
2023-01-18T13:52:31.603Z,98725.47
2023-01-18T13:55:31.065Z,98724.63
2023-01-18T13:58:19.689Z,98720.47
2023-01-18T14:01:06.241Z,98727.72
2023-01-18T14:03:52.507Z,98738.22
2023-01-18T14:06:39.224Z,98753.00
2023-01-18T14:09:46.244Z,98754.28
2023-01-18T14:12:48.113Z,98762.75
2023-01-18T14:15:51.308Z,98773.41
2023-01-18T14:18:37.568Z,98781.69
2023-01-18T14:21:24.855Z,98790.13
2023-01-18T14:24:14.784Z,98794.78
2023-01-18T14:27:00.933Z,98803.06
2023-01-18T14:29:47.391Z,98810.94
2023-01-18T14:32:36.603Z,98821.78
2023-01-18T14:35:25.644Z,98822.94
2023-01-18T14:38:17.980Z,98824.53
2023-01-18T14:41:05.285Z,98832.56
2023-01-18T14:43:51.632Z,98834.66
2023-01-18T14:46:37.688Z,98836.38
2023-01-18T14:49:26.469Z,98838.84
2023-01-18T14:52:12.866Z,98852.66
2023-01-18T14:54:59.089Z,98853.78
2023-01-18T14:57:45.173Z,98853.53
2023-01-18T15:00:31.305Z,98851.19
2023-01-18T15:03:23.954Z,98861.69
2023-01-18T15:06:13.454Z,98858.38
2023-01-18T15:08:59.183Z,98865.53
2023-01-18T15:11:45.274Z,98863.47
2023-01-18T15:14:32.320Z,98864.41
2023-01-18T15:17:21.848Z,98864.56
2023-01-18T15:20:09.691Z,98870.59
2023-01-18T15:22:57.459Z,98868.66
2023-01-18T15:25:43.577Z,98881.44
2023-01-18T15:28:30.613Z,98884.59
2023-01-18T15:31:16.692Z,98878.50
2023-01-18T15:34:03.188Z,98886.91
2023-01-18T15:36:49.013Z,98890.97
2023-01-18T15:39:36.421Z,98890.00
2023-01-18T15:42:22.583Z,98889.44
2023-01-18T15:45:13.811Z,98892.00
2023-01-18T15:48:01.618Z,98892.66
2023-01-18T15:50:49.027Z,98890.31
2023-01-18T15:53:35.536Z,98892.03
2023-01-18T15:56:23.310Z,98889.81
2023-01-18T15:59:09.816Z,98902.41
2023-01-18T16:02:05.557Z,98895.66
2023-01-18T16:05:04.149Z,98899.63
2023-01-18T16:07:51.522Z,98897.97
2023-01-18T16:10:47.288Z,98899.06
2023-01-18T16:13:36.599Z,98901.94
2023-01-18T16:16:24.466Z,98900.50
2023-01-18T16:19:12.791Z,98904.22
2023-01-18T16:21:59.777Z,98910.78
2023-01-18T16:24:46.567Z,98905.81
2023-01-18T16:27:33.917Z,98903.47
2023-01-18T16:30:22.334Z,98901.91
2023-01-18T16:33:09.813Z,98905.47
2023-01-18T16:35:55.592Z,98907.38
2023-01-18T16:38:41.254Z,98909.16
2023-01-18T16:41:26.938Z,98915.06
2023-01-18T16:44:12.720Z,98923.28
2023-01-18T16:46:59.869Z,98918.19
2023-01-18T16:49:45.689Z,98924.63
2023-01-18T16:52:31.466Z,98919.66
2023-01-18T16:55:17.863Z,98921.44
2023-01-18T16:58:03.762Z,98921.53
2023-01-18T17:00:51.216Z,98933.88
2023-01-18T17:03:39.455Z,98931.41
2023-01-18T17:06:26.365Z,98938.28
2023-01-18T17:09:19.582Z,98938.28
2023-01-18T17:12:05.473Z,98939.94
2023-01-18T17:14:51.303Z,98942.09
2023-01-18T17:17:37.077Z,98945.22
2023-01-18T17:20:25.281Z,98941.91
2023-01-18T17:23:11.503Z,98951.38
2023-01-18T17:25:58.373Z,98961.22
2023-01-18T17:28:44.565Z,98951.16
2023-01-18T17:31:30.691Z,98954.59
2023-01-18T17:34:17.386Z,98959.09
2023-01-18T17:37:04.621Z,98959.47
2023-01-18T17:40:10.990Z,98966.34
2023-01-18T17:42:57.034Z,98970.16
2023-01-18T17:45:48.388Z,98976.19
2023-01-18T17:48:37.369Z,98985.53
2023-01-18T17:51:23.228Z,98992.66
2023-01-18T17:54:16.747Z,98991.72
2023-01-18T17:57:06.500Z,99002.97
2023-01-18T17:59:55.325Z,99006.41
2023-01-18T18:02:41.218Z,99009.47
2023-01-18T18:05:27.199Z,99012.06
2023-01-18T18:08:12.939Z,99011.38
2023-01-18T18:11:00.173Z,99019.91
2023-01-18T18:13:46.313Z,99018.75
2023-01-18T18:16:34.425Z,99035.22
2023-01-18T18:19:25.320Z,99031.06
2023-01-18T18:22:11.298Z,99047.78
2023-01-18T18:24:57.168Z,99049.06
2023-01-18T18:27:46.478Z,99050.72
2023-01-18T18:30:33.185Z,99052.88
2023-01-18T18:33:19.423Z,99053.13
2023-01-18T18:36:05.813Z,99051.69
2023-01-18T18:38:51.783Z,99050.88
2023-01-18T18:41:37.606Z,99058.81
2023-01-18T18:44:24.777Z,99061.06
2023-01-18T18:47:13.267Z,99062.13
2023-01-18T18:49:59.382Z,99065.19
2023-01-18T18:52:45.579Z,99071.13
2023-01-18T18:55:31.292Z,99071.94
2023-01-18T18:58:17.065Z,99081.31
2023-01-18T19:01:04.871Z,99079.28
2023-01-18T19:03:51.636Z,99090.53
2023-01-18T19:06:38.183Z,99084.38
2023-01-18T19:09:24.127Z,99074.69
2023-01-18T19:12:09.749Z,99078.34
2023-01-18T19:14:55.560Z,99085.31
2023-01-18T19:17:42.675Z,99087.22
2023-01-18T19:20:28.544Z,99078.59
2023-01-18T19:23:14.990Z,99084.97
2023-01-18T19:26:01.060Z,99097.31
2023-01-18T19:28:47.936Z,99103.22
2023-01-18T19:31:34.093Z,99096.47
2023-01-18T19:34:21.992Z,99099.31
2023-01-18T19:37:07.943Z,99109.13
2023-01-18T19:39:53.885Z,99116.47
2023-01-18T19:42:39.668Z,99114.00
2023-01-18T19:45:28.993Z,99112.34
2023-01-18T19:48:15.341Z,99121.06
2023-01-18T19:51:20.225Z,99113.59
2023-01-18T19:54:06.910Z,99121.69
2023-01-18T19:56:52.804Z,99133.78
2023-01-18T19:59:38.785Z,99128.44
2023-01-18T20:02:24.746Z,99127.38
2023-01-18T20:05:11.044Z,99123.84
2023-01-18T20:07:58.029Z,99127.06
2023-01-18T20:10:43.810Z,99113.53
2023-01-18T20:13:29.899Z,99104.31
2023-01-18T20:16:16.094Z,99096.97
2023-01-18T20:19:02.117Z,99100.88
2023-01-18T20:21:48.041Z,99098.38
2023-01-18T20:24:35.324Z,99100.16
2023-01-18T20:27:21.192Z,99106.31
2023-01-18T20:30:07.647Z,99099.22
2023-01-18T20:32:53.364Z,99096.47
2023-01-18T20:35:39.861Z,99090.06
2023-01-18T20:38:26.573Z,99096.47
2023-01-18T20:41:13.891Z,99087.13
2023-01-18T20:43:59.772Z,99094.94
2023-01-18T20:46:47.426Z,99105.25
2023-01-18T20:49:38.335Z,99095.88
2023-01-18T20:52:24.535Z,99101.69
2023-01-18T20:55:12.938Z,99101.94
2023-01-18T20:58:00.233Z,99095.06
2023-01-18T21:00:46.014Z,99101.47
2023-01-18T21:03:31.928Z,99110.00
2023-01-18T21:06:17.891Z,99105.63
2023-01-18T21:09:04.101Z,99090.09
2023-01-18T21:11:50.026Z,99096.84
2023-01-18T21:14:36.954Z,99097.66
2023-01-18T21:17:22.652Z,99097.56
2023-01-18T21:20:09.040Z,99094.22
2023-01-18T21:22:54.741Z,99096.72
2023-01-18T21:25:40.975Z,99098.25
2023-01-18T21:28:27.044Z,99100.03
2023-01-18T21:31:14.171Z,99103.00
2023-01-18T21:34:00.111Z,99096.97
2023-01-18T21:36:46.514Z,99100.53
2023-01-18T21:39:32.905Z,99100.53
2023-01-18T21:42:36.676Z,99106.81
2023-01-18T21:45:40.611Z,99111.31
2023-01-18T21:48:29.183Z,99114.75
2023-01-18T21:51:33.055Z,99117.00
2023-01-18T21:54:21.928Z,99114.03
2023-01-18T21:57:09.334Z,99107.03
2023-01-18T21:59:55.955Z,99106.09
2023-01-18T22:02:41.887Z,99108.56
2023-01-18T22:05:29.559Z,99101.69
2023-01-18T22:08:15.765Z,99114.97
2023-01-18T22:11:01.593Z,99115.44
2023-01-18T22:13:47.534Z,99113.53
2023-01-18T22:16:33.568Z,99111.88
2023-01-18T22:19:19.951Z,99115.09
2023-01-18T22:22:07.425Z,99114.97
2023-01-18T22:24:53.333Z,99114.97
2023-01-18T22:27:39.270Z,99101.56
2023-01-18T22:30:26.458Z,99097.66
2023-01-18T22:33:12.594Z,99111.41
2023-01-18T22:35:58.477Z,99118.41
2023-01-18T22:38:45.739Z,99117.44
2023-01-18T22:41:31.765Z,99112.34
2023-01-18T22:44:18.111Z,99112.84
2023-01-18T22:47:03.859Z,99108.53
2023-01-18T22:49:49.657Z,99108.53
2023-01-18T22:52:35.409Z,99111.28
2023-01-18T22:55:22.507Z,99101.22
2023-01-18T22:58:08.755Z,99108.78
2023-01-18T23:00:54.572Z,99108.09
2023-01-18T23:03:40.998Z,99116.63
2023-01-18T23:06:28.855Z,99108.91
2023-01-18T23:09:15.514Z,99114.00
2023-01-18T23:12:02.564Z,99113.75
2023-01-18T23:15:20.651Z,99117.31
2023-01-18T23:18:06.929Z,99112.34
2023-01-18T23:20:56.680Z,99109.63
2023-01-18T23:23:42.450Z,99113.75
2023-01-18T23:26:28.539Z,99115.78
2023-01-18T23:29:15.648Z,99116.63
2023-01-18T23:32:01.546Z,99112.34
2023-01-18T23:34:47.697Z,99117.31
2023-01-18T23:37:33.395Z,99121.34
2023-01-18T23:40:37.492Z,99122.19
2023-01-18T23:43:41.352Z,99127.06
2023-01-18T23:46:46.514Z,99124.44
2023-01-18T23:49:50.175Z,99123.38
2023-01-18T23:52:53.994Z,99121.72
2023-01-18T23:55:41.328Z,99121.09
2023-01-18T23:58:27.161Z,99121.09
